»·PEaware :: ACA650 KPDX-KBOI

ACA650 :: KPDX-KBOI

FLIGHT INFORMATION

Flight Status: Arrived
Operator:
Air Canada
More flights by this operator :: More flights under this callsign
Pilot: Ben W. (5837)
Aircraft: AIRBUS A320
(A320)
More flights by this aircraft type
Origin: KPDX Portland Intl
United States
Destination: KBOI Boise Air Terminal/Gowen
United States
More flights between these airports :: More routes between these airports
Route: WHAMY4 IMB HOSTS PARMO3
File this flight plan on PilotEdge
Remarks:
Altitude:
(Current/Filed)
31,000ft
Speed:
(Current/Filed)
415kts
Departed: 24-Feb-18 11:15 AM
Arrived: 24-Feb-18 12:06 PM
Distance/Time
Traveled:
298nm/0:51
Distance/Time
To Go:
Arrived

Flight Plot

Page will automatically refresh every two minutes.

Flight plan parsing failed; only flown route is shown


Map Options




Map Legend


Flown Route
Filed Route
Departure Airport
Arrival Airport
Navaid (VOR, NDB)
Fix

Horizontal Profiles

Position Reports

Time Latitude Longitude Heading Altitude Ground
Speed
24-Feb-18 10:57 45.590023 -122.597929 208 38ft 0kts
24-Feb-18 10:58 45.590023 -122.597929 208 38ft 0kts
24-Feb-18 10:59 45.590023 -122.597929 208 38ft 0kts
24-Feb-18 11:00 45.590023 -122.597929 208 38ft 0kts
24-Feb-18 11:01 45.590023 -122.597929 208 38ft 0kts
24-Feb-18 11:02 45.590023 -122.597929 208 38ft 0kts
24-Feb-18 11:03 45.590023 -122.597929 208 38ft 0kts
24-Feb-18 11:04 45.590023 -122.597929 208 38ft 0kts
24-Feb-18 11:05 45.590023 -122.597929 208 38ft 0kts
24-Feb-18 11:06 45.590023 -122.597929 208 38ft 0kts
24-Feb-18 11:07 45.590023 -122.597929 208 38ft 0kts
24-Feb-18 11:08 45.590023 -122.597929 208 38ft 0kts
24-Feb-18 11:09 45.590023 -122.597929 208 38ft 0kts
24-Feb-18 11:10 45.590023 -122.597929 208 38ft 0kts
24-Feb-18 11:11 45.590023 -122.597929 208 38ft 0kts
24-Feb-18 11:12 45.590338 -122.597686 207 38ft 2kts
24-Feb-18 11:13 45.590514 -122.597068 301 38ft 1kts
24-Feb-18 11:14 45.590488 -122.597010 298 38ft 0kts
24-Feb-18 11:15 45.590488 -122.597010 298 38ft 0kts
24-Feb-18 11:16 45.591057 -122.598504 297 38ft 9kts
24-Feb-18 11:17 45.589481 -122.602153 203 38ft 13kts
24-Feb-18 11:18 45.586897 -122.597120 118 38ft 22kts
24-Feb-18 11:19 45.583054 -122.587219 119 38ft 33kts
24-Feb-18 11:20 45.581493 -122.583553 170 38ft 0kts
24-Feb-18 11:21 45.581048 -122.583679 211 38ft 10kts
24-Feb-18 11:22 45.583944 -122.592733 298 39ft 131kts
24-Feb-18 11:23 45.611125 -122.655074 300 3242ft 228kts
24-Feb-18 11:24 45.647020 -122.741894 297 6722ft 265kts
24-Feb-18 11:25 45.669120 -122.837102 253 11181ft 258kts
24-Feb-18 11:26 45.594343 -122.872545 162 13238ft 385kts
24-Feb-18 11:27 45.527137 -122.749933 113 15018ft 412kts
24-Feb-18 11:28 45.475384 -122.599246 113 16905ft 442kts
24-Feb-18 11:29 45.419495 -122.440790 112 19252ft 460kts
24-Feb-18 11:30 45.362191 -122.279472 113 21340ft 476kts
24-Feb-18 11:31 45.301861 -122.110750 112 23125ft 486kts
24-Feb-18 11:32 45.243022 -121.935094 103 24592ft 493kts
24-Feb-18 11:33 45.195972 -121.750802 103 26308ft 504kts
24-Feb-18 11:34 45.147336 -121.562452 103 27881ft 514kts
24-Feb-18 11:35 45.097783 -121.372050 102 29335ft 522kts
24-Feb-18 11:36 45.047974 -121.182270 103 30888ft 523kts
24-Feb-18 11:37 44.997426 -120.991069 103 31124ft 519kts
24-Feb-18 11:38 44.946466 -120.799979 103 31127ft 521kts
24-Feb-18 11:39 44.897119 -120.616366 103 31124ft 520kts
24-Feb-18 11:40 44.845813 -120.426904 103 31027ft 519kts
24-Feb-18 11:41 44.795486 -120.242541 104 31025ft 519kts
24-Feb-18 11:42 44.743434 -120.053321 104 31036ft 520kts
24-Feb-18 11:43 44.691224 -119.864993 104 30995ft 521kts
24-Feb-18 11:44 44.638131 -119.675567 104 31006ft 522kts
24-Feb-18 11:45 44.583047 -119.487508 105 31007ft 522kts
24-Feb-18 11:46 44.529276 -119.304676 105 30998ft 522kts
24-Feb-18 11:47 44.473656 -119.116916 105 30989ft 522kts
24-Feb-18 11:48 44.417936 -118.930201 105 30992ft 522kts
24-Feb-18 11:49 44.361640 -118.742942 105 30995ft 522kts
24-Feb-18 11:50 44.305358 -118.557107 105 30392ft 519kts
24-Feb-18 11:51 44.250120 -118.376028 106 28265ft 504kts
24-Feb-18 11:52 44.198330 -118.207371 107 26149ft 490kts
24-Feb-18 11:53 44.145586 -118.036747 108 23937ft 477kts
24-Feb-18 11:54 44.093982 -117.870891 108 21844ft 461kts
24-Feb-18 11:55 44.045666 -117.716463 108 19725ft 426kts
24-Feb-18 11:56 43.999776 -117.570669 114 18295ft 400kts
24-Feb-18 11:57 43.957617 -117.437149 115 17171ft 351kts
24-Feb-18 11:58 43.920503 -117.320302 115 14582ft 331kts
24-Feb-18 11:59 43.884741 -117.208306 115 12500ft 322kts
24-Feb-18 12:00 43.848827 -117.096255 115 11029ft 310kts
24-Feb-18 12:01 43.814129 -116.988661 115 10232ft 305kts
24-Feb-18 12:02 43.781060 -116.886723 116 9632ft 276kts
24-Feb-18 12:03 43.750930 -116.793956 115 8644ft 256kts
24-Feb-18 12:04 43.722472 -116.707178 113 7626ft 235kts
24-Feb-18 12:05 43.701595 -116.627940 108 6304ft 215kts
24-Feb-18 12:06 43.676151 -116.551319 116 5052ft 223kts
24-Feb-18 12:07 43.651675 -116.480802 114 5016ft 195kts
24-Feb-18 12:08 43.628838 -116.414241 115 5018ft 180kts
24-Feb-18 12:09 43.608530 -116.355015 116 4609ft 155kts
24-Feb-18 12:10 43.591743 -116.305983 117 3840ft 124kts
24-Feb-18 12:11 43.577837 -116.265421 118 3221ft 117kts
24-Feb-18 12:12 43.565429 -116.229154 114 2844ft 56kts
24-Feb-18 12:13 43.565014 -116.223726 3 2851ft 0kts
24-Feb-18 12:14 43.566596 -116.222606 116 2852ft 16kts
24-Feb-18 12:15 43.566682 -116.218871 23 2854ft 0kts
24-Feb-18 12:16 43.566682 -116.218871 23 2854ft 0kts
24-Feb-18 12:17 43.566682 -116.218871 23 2854ft 0kts
24-Feb-18 12:18 43.566682 -116.218871 23 2854ft 0kts
24-Feb-18 12:19 43.566682 -116.218871 23 2854ft 0kts
24-Feb-18 12:20 43.566682 -116.218871 23 2854ft 0kts
24-Feb-18 12:21 43.566682 -116.218871 23 2854ft 0kts
24-Feb-18 12:22 43.566682 -116.218871 23 2854ft 0kts
24-Feb-18 12:23 43.566682 -116.218871 23 2854ft 0kts
24-Feb-18 12:24 43.566682 -116.218871 23 2854ft 0kts
24-Feb-18 12:25 43.566682 -116.218871 23 2854ft 0kts
24-Feb-18 12:26 43.566682 -116.218871 23 2854ft 0kts
24-Feb-18 12:27 43.566682 -116.218871 23 2854ft 0kts
24-Feb-18 12:28 43.566682 -116.218871 23 2854ft 0kts

Navigation Log

Ident Type
Flight plan parsing failed, navigation log unavailable